sensor_id;sensor_type;location;lat;lon;timestamp;pressure;altitude;pressure_sealevel;temperature;humidity
12073;BME280;6098;49.004;8.372;2022-12-05T00:12:02;100302.84;;;4.92;100.00
12073;BME280;6098;49.004;8.372;2022-12-05T00:26:54;100301.75;;;4.78;100.00
12073;BME280;6098;49.004;8.372;2022-12-05T00:41:45;100317.88;;;4.81;100.00
12073;BME280;6098;49.004;8.372;2022-12-05T00:56:36;100318.87;;;4.74;100.00
12073;BME280;6098;49.004;8.372;2022-12-05T01:11:25;100315.47;;;4.69;100.00
12073;BME280;6098;49.004;8.372;2022-12-05T01:26:16;100323.84;;;4.65;100.00
12073;BME280;6098;49.004;8.372;2022-12-05T01:41:06;100347.41;;;4.68;100.00
12073;BME280;6098;49.004;8.372;2022-12-05T01:55:56;100336.85;;;4.72;100.00
12073;BME280;6098;49.004;8.372;2022-12-05T02:10:49;100349.14;;;4.71;100.00
12073;BME280;6098;49.004;8.372;2022-12-05T02:55:53;100385.22;;;4.85;100.00
12073;BME280;6098;49.004;8.372;2022-12-05T03:26:17;100398.67;;;4.94;100.00
12073;BME280;6098;49.004;8.372;2022-12-05T03:41:24;100391.14;;;4.98;100.00
12073;BME280;6098;49.004;8.372;2022-12-05T03:56:20;100399.92;;;4.98;100.00
12073;BME280;6098;49.004;8.372;2022-12-05T04:11:10;100394.27;;;4.94;99.82
12073;BME280;6098;49.004;8.372;2022-12-05T04:26:04;100392.02;;;4.99;99.42
12073;BME280;6098;49.004;8.372;2022-12-05T04:40:57;100416.88;;;5.05;99.12
12073;BME280;6098;49.004;8.372;2022-12-05T04:55:46;100437.86;;;5.07;98.94
12073;BME280;6098;49.004;8.372;2022-12-05T05:10:38;100433.92;;;5.06;98.58
12073;BME280;6098;49.004;8.372;2022-12-05T05:25:28;100438.71;;;5.09;97.66
12073;BME280;6098;49.004;8.372;2022-12-05T05:40:19;100465.34;;;5.14;97.91
12073;BME280;6098;49.004;8.372;2022-12-05T05:55:09;100476.63;;;5.18;97.74
12073;BME280;6098;49.004;8.372;2022-12-05T06:10:00;100478.35;;;5.22;97.92
12073;BME280;6098;49.004;8.372;2022-12-05T06:24:50;100496.69;;;5.25;98.17
12073;BME280;6098;49.004;8.372;2022-12-05T06:39:43;100507.17;;;5.27;98.14
12073;BME280;6098;49.004;8.372;2022-12-05T06:54:33;100526.41;;;5.29;97.35
12073;BME280;6098;49.004;8.372;2022-12-05T07:09:24;100535.12;;;5.33;97.56
12073;BME280;6098;49.004;8.372;2022-12-05T07:24:20;100557.41;;;5.37;97.19
12073;BME280;6098;49.004;8.372;2022-12-05T07:39:12;100569.64;;;5.94;94.87
12073;BME280;6098;49.004;8.372;2022-12-05T07:54:04;100575.40;;;5.62;95.15
12073;BME280;6098;49.004;8.372;2022-12-05T08:08:56;100587.32;;;5.57;95.59
12073;BME280;6098;49.004;8.372;2022-12-05T08:23:45;100584.69;;;5.57;95.45
12073;BME280;6098;49.004;8.372;2022-12-05T08:38:36;100598.62;;;5.62;94.71
12073;BME280;6098;49.004;8.372;2022-12-05T08:53:26;100603.36;;;5.69;95.44
12073;BME280;6098;49.004;8.372;2022-12-05T09:08:16;100627.41;;;5.72;95.62
12073;BME280;6098;49.004;8.372;2022-12-05T09:23:08;100644.89;;;5.76;95.19
12073;BME280;6098;49.004;8.372;2022-12-05T09:38:00;100682.08;;;5.84;95.84
12073;BME280;6098;49.004;8.372;2022-12-05T10:37:46;100655.66;;;6.17;96.23
12073;BME280;6098;49.004;8.372;2022-12-05T10:52:37;100664.92;;;6.39;94.86
12073;BME280;6098;49.004;8.372;2022-12-05T11:07:33;100658.00;;;6.58;95.16
12073;BME280;6098;49.004;8.372;2022-12-05T11:22:29;100659.15;;;6.68;94.60
12073;BME280;6098;49.004;8.372;2022-12-05T12:08:23;100635.89;;;7.33;89.19
12073;BME280;6098;49.004;8.372;2022-12-05T12:38:50;100617.72;;;7.19;86.13
12073;BME280;6098;49.004;8.372;2022-12-05T12:54:02;100632.63;;;7.20;86.28
12073;BME280;6098;49.004;8.372;2022-12-05T13:08:58;100635.33;;;7.37;84.76
12073;BME280;6098;49.004;8.372;2022-12-05T13:23:51;100636.17;;;7.39;85.00
12073;BME280;6098;49.004;8.372;2022-12-05T13:38:40;100644.64;;;7.34;84.40
12073;BME280;6098;49.004;8.372;2022-12-05T14:08:58;100648.08;;;7.17;80.06
12073;BME280;6098;49.004;8.372;2022-12-05T14:24:20;100655.62;;;7.12;80.47
12073;BME280;6098;49.004;8.372;2022-12-05T14:39:31;100664.48;;;7.09;79.65
12073;BME280;6098;49.004;8.372;2022-12-05T14:54:26;100670.28;;;7.05;79.61
12073;BME280;6098;49.004;8.372;2022-12-05T15:09:30;100670.24;;;7.07;80.68
12073;BME280;6098;49.004;8.372;2022-12-05T15:24:24;100673.35;;;7.05;81.17
12073;BME280;6098;49.004;8.372;2022-12-05T15:39:21;100684.44;;;7.00;80.51
12073;BME280;6098;49.004;8.372;2022-12-05T15:54:17;100695.86;;;7.00;81.48
12073;BME280;6098;49.004;8.372;2022-12-05T16:09:16;100694.95;;;7.01;82.42
12073;BME280;6098;49.004;8.372;2022-12-05T16:24:17;100696.78;;;6.98;82.40
12073;BME280;6098;49.004;8.372;2022-12-05T16:39:12;100709.52;;;6.98;82.17
12073;BME280;6098;49.004;8.372;2022-12-05T16:54:02;100712.12;;;6.99;82.24
12073;BME280;6098;49.004;8.372;2022-12-05T17:08:52;100717.86;;;6.98;82.39
12073;BME280;6098;49.004;8.372;2022-12-05T17:23:43;100729.72;;;6.98;82.50
12073;BME280;6098;49.004;8.372;2022-12-05T17:38:33;100727.12;;;6.96;83.05
12073;BME280;6098;49.004;8.372;2022-12-05T17:53:23;100735.61;;;6.89;83.68
12073;BME280;6098;49.004;8.372;2022-12-05T18:08:14;100739.19;;;6.85;84.41
12073;BME280;6098;49.004;8.372;2022-12-05T18:23:03;100741.48;;;6.78;85.27
12073;BME280;6098;49.004;8.372;2022-12-05T18:37:54;100742.06;;;6.72;86.26
12073;BME280;6098;49.004;8.372;2022-12-05T18:52:45;100747.83;;;6.68;87.05
12073;BME280;6098;49.004;8.372;2022-12-05T19:07:36;100736.11;;;6.61;87.71
12073;BME280;6098;49.004;8.372;2022-12-05T19:22:27;100727.99;;;6.47;88.26
12073;BME280;6098;49.004;8.372;2022-12-05T19:37:17;100736.02;;;6.39;88.69
12073;BME280;6098;49.004;8.372;2022-12-05T19:52:10;100746.52;;;6.42;88.77
12073;BME280;6098;49.004;8.372;2022-12-05T20:07:00;100755.38;;;6.36;89.91
12073;BME280;6098;49.004;8.372;2022-12-05T20:21:53;100758.08;;;6.33;90.18
12073;BME280;6098;49.004;8.372;2022-12-05T20:51:53;100749.83;;;6.25;88.46
12073;BME280;6098;49.004;8.372;2022-12-05T21:06:43;100763.45;;;6.25;87.39
12073;BME280;6098;49.004;8.372;2022-12-05T21:21:34;100759.48;;;6.26;87.72
12073;BME280;6098;49.004;8.372;2022-12-05T21:36:26;100764.39;;;6.21;88.88
12073;BME280;6098;49.004;8.372;2022-12-05T21:51:16;100755.73;;;6.14;89.18
12073;BME280;6098;49.004;8.372;2022-12-05T22:06:08;100746.64;;;6.06;88.69
12073;BME280;6098;49.004;8.372;2022-12-05T22:20:59;100746.77;;;5.96;88.34
12073;BME280;6098;49.004;8.372;2022-12-05T22:35:50;100751.72;;;5.86;88.22
12073;BME280;6098;49.004;8.372;2022-12-05T22:50:44;100743.91;;;5.79;88.46
12073;BME280;6098;49.004;8.372;2022-12-05T23:05:40;100741.73;;;5.77;88.53
12073;BME280;6098;49.004;8.372;2022-12-05T23:20:41;100722.48;;;5.75;88.64
12073;BME280;6098;49.004;8.372;2022-12-05T23:35:45;100724.23;;;5.76;88.51
